sensor_id;sensor_type;location;lat;lon;timestamp;pressure;altitude;pressure_sealevel;temperature;humidity
18790;BME280;9523;42.650;23.386;2023-04-01T00:01:37;93735.53;;;11.06;72.87
18790;BME280;9523;42.650;23.386;2023-04-01T00:04:04;93757.41;;;11.15;72.29
18790;BME280;9523;42.650;23.386;2023-04-01T00:06:31;93759.31;;;11.06;72.38
18790;BME280;9523;42.650;23.386;2023-04-01T00:08:58;93751.84;;;10.91;73.17
18790;BME280;9523;42.650;23.386;2023-04-01T00:11:25;93753.69;;;10.81;73.80
18790;BME280;9523;42.650;23.386;2023-04-01T00:13:53;93757.84;;;10.57;75.92
18790;BME280;9523;42.650;23.386;2023-04-01T00:16:21;93751.78;;;10.56;76.62
18790;BME280;9523;42.650;23.386;2023-04-01T00:18:48;93740.47;;;10.56;76.81
18790;BME280;9523;42.650;23.386;2023-04-01T00:21:16;93747.31;;;10.57;77.18
18790;BME280;9523;42.650;23.386;2023-04-01T00:23:43;93763.59;;;10.50;78.48
18790;BME280;9523;42.650;23.386;2023-04-01T00:26:10;93766.66;;;10.44;79.33
18790;BME280;9523;42.650;23.386;2023-04-01T00:28:37;93767.22;;;10.23;79.90
18790;BME280;9523;42.650;23.386;2023-04-01T00:31:05;93755.91;;;10.23;80.32
18790;BME280;9523;42.650;23.386;2023-04-01T00:33:33;93757.00;;;10.22;81.53
18790;BME280;9523;42.650;23.386;2023-04-01T00:36:08;93756.53;;;10.28;80.43
18790;BME280;9523;42.650;23.386;2023-04-01T00:38:36;93742.88;;;10.18;80.93
18790;BME280;9523;42.650;23.386;2023-04-01T00:41:03;93753.44;;;10.26;81.14
18790;BME280;9523;42.650;23.386;2023-04-01T00:43:31;93746.91;;;10.24;80.95
18790;BME280;9523;42.650;23.386;2023-04-01T00:45:58;93739.44;;;10.17;81.00
18790;BME280;9523;42.650;23.386;2023-04-01T00:48:26;93736.22;;;10.29;80.85
18790;BME280;9523;42.650;23.386;2023-04-01T00:50:59;93726.59;;;10.24;82.73
18790;BME280;9523;42.650;23.386;2023-04-01T00:53:28;93723.53;;;10.31;83.85
18790;BME280;9523;42.650;23.386;2023-04-01T00:55:59;93716.06;;;10.33;82.89
18790;BME280;9523;42.650;23.386;2023-04-01T00:58:31;93724.28;;;10.31;84.26
18790;BME280;9523;42.650;23.386;2023-04-01T01:00:59;93694.34;;;10.19;84.57
18790;BME280;9523;42.650;23.386;2023-04-01T01:03:26;93716.06;;;10.33;81.48
18790;BME280;9523;42.650;23.386;2023-04-01T01:06:15;93714.06;;;10.30;79.57
18790;BME280;9523;42.650;23.386;2023-04-01T01:09:05;93706.19;;;9.99;79.04
18790;BME280;9523;42.650;23.386;2023-04-01T01:11:37;93703.84;;;9.98;79.87
18790;BME280;9523;42.650;23.386;2023-04-01T01:14:13;93685.69;;;9.87;80.25
18790;BME280;9523;42.650;23.386;2023-04-01T01:16:48;93691.59;;;9.93;80.19
18790;BME280;9523;42.650;23.386;2023-04-01T01:19:35;93686.97;;;9.99;79.06
18790;BME280;9523;42.650;23.386;2023-04-01T01:22:22;93680.47;;;10.05;77.97
18790;BME280;9523;42.650;23.386;2023-04-01T01:25:22;93675.22;;;10.13;79.94
18790;BME280;9523;42.650;23.386;2023-04-01T01:28:00;93675.72;;;10.24;80.36
18790;BME280;9523;42.650;23.386;2023-04-01T01:30:39;93681.19;;;10.36;80.52
18790;BME280;9523;42.650;23.386;2023-04-01T01:33:18;93682.75;;;10.37;76.26
18790;BME280;9523;42.650;23.386;2023-04-01T01:35:50;93660.72;;;10.42;73.34
18790;BME280;9523;42.650;23.386;2023-04-01T01:38:23;93656.06;;;10.56;71.23
18790;BME280;9523;42.650;23.386;2023-04-01T01:40:52;93655.16;;;10.69;71.61
18790;BME280;9523;42.650;23.386;2023-04-01T01:43:22;93641.19;;;10.68;72.13
18790;BME280;9523;42.650;23.386;2023-04-01T01:45:54;93658.25;;;10.71;69.23
18790;BME280;9523;42.650;23.386;2023-04-01T01:48:23;93662.28;;;10.68;69.93
18790;BME280;9523;42.650;23.386;2023-04-01T01:50:52;93645.38;;;10.61;68.17
18790;BME280;9523;42.650;23.386;2023-04-01T01:53:19;93666.94;;;10.80;68.61
18790;BME280;9523;42.650;23.386;2023-04-01T01:55:47;93651.88;;;10.80;68.51
18790;BME280;9523;42.650;23.386;2023-04-01T01:58:18;93637.91;;;10.89;68.25
18790;BME280;9523;42.650;23.386;2023-04-01T02:00:49;93635.28;;;10.89;66.55
18790;BME280;9523;42.650;23.386;2023-04-01T02:03:17;93629.34;;;11.00;67.75
18790;BME280;9523;42.650;23.386;2023-04-01T02:05:47;93633.22;;;11.03;67.50
18790;BME280;9523;42.650;23.386;2023-04-01T02:08:22;93640.69;;;11.09;67.90
18790;BME280;9523;42.650;23.386;2023-04-01T02:10:55;93647.97;;;11.12;66.97
18790;BME280;9523;42.650;23.386;2023-04-01T02:13:29;93635.97;;;11.15;64.64
18790;BME280;9523;42.650;23.386;2023-04-01T02:16:01;93624.19;;;11.21;63.88
18790;BME280;9523;42.650;23.386;2023-04-01T02:18:30;93612.66;;;11.34;63.20
18790;BME280;9523;42.650;23.386;2023-04-01T02:21:00;93618.09;;;11.38;62.94
18790;BME280;9523;42.650;23.386;2023-04-01T02:23:28;93618.88;;;11.38;64.54
18790;BME280;9523;42.650;23.386;2023-04-01T02:25:56;93623.22;;;11.34;65.90
18790;BME280;9523;42.650;23.386;2023-04-01T02:28:23;93622.72;;;11.41;65.33
18790;BME280;9523;42.650;23.386;2023-04-01T02:30:51;93618.22;;;11.41;64.47
18790;BME280;9523;42.650;23.386;2023-04-01T02:33:19;93605.59;;;11.47;64.57
18790;BME280;9523;42.650;23.386;2023-04-01T02:35:47;93606.38;;;11.47;64.41
18790;BME280;9523;42.650;23.386;2023-04-01T02:38:14;93613.22;;;11.48;62.84
18790;BME280;9523;42.650;23.386;2023-04-01T02:40:48;93610.69;;;11.60;62.70
18790;BME280;9523;42.650;23.386;2023-04-01T02:43:15;93617.84;;;11.60;61.75
18790;BME280;9523;42.650;23.386;2023-04-01T02:45:43;93619.56;;;11.56;61.04
18790;BME280;9523;42.650;23.386;2023-04-01T02:48:10;93619.09;;;11.62;60.29
18790;BME280;9523;42.650;23.386;2023-04-01T02:50:38;93627.13;;;11.74;61.22
18790;BME280;9523;42.650;23.386;2023-04-01T02:53:05;93626.94;;;11.80;61.25
18790;BME280;9523;42.650;23.386;2023-04-01T02:55:32;93613.16;;;11.65;61.51
18790;BME280;9523;42.650;23.386;2023-04-01T02:58:00;93635.47;;;11.85;61.59
18790;BME280;9523;42.650;23.386;2023-04-01T03:00:27;93633.13;;;11.84;61.82
18790;BME280;9523;42.650;23.386;2023-04-01T03:02:54;93631.78;;;11.77;60.92
18790;BME280;9523;42.650;23.386;2023-04-01T03:05:21;93650.09;;;11.83;61.39
18790;BME280;9523;42.650;23.386;2023-04-01T03:07:49;93653.72;;;11.61;62.74
18790;BME280;9523;42.650;23.386;2023-04-01T03:10:15;93645.84;;;11.52;64.15
18790;BME280;9523;42.650;23.386;2023-04-01T03:12:42;93650.56;;;11.38;66.20
18790;BME280;9523;42.650;23.386;2023-04-01T03:15:11;93667.63;;;11.41;67.28
18790;BME280;9523;42.650;23.386;2023-04-01T03:17:40;93672.78;;;11.28;68.03
18790;BME280;9523;42.650;23.386;2023-04-01T03:20:08;93666.88;;;11.23;67.80
18790;BME280;9523;42.650;23.386;2023-04-01T03:22:36;93645.47;;;11.16;69.24
18790;BME280;9523;42.650;23.386;2023-04-01T03:25:05;93671.34;;;11.31;69.49
18790;BME280;9523;42.650;23.386;2023-04-01T03:27:32;93670.94;;;11.12;70.98
18790;BME280;9523;42.650;23.386;2023-04-01T03:29:59;93667.50;;;11.20;67.44
18790;BME280;9523;42.650;23.386;2023-04-01T03:32:27;93674.19;;;11.17;68.44
18790;BME280;9523;42.650;23.386;2023-04-01T03:34:54;93663.31;;;11.19;69.69
18790;BME280;9523;42.650;23.386;2023-04-01T03:37:22;93658.22;;;11.14;70.79
18790;BME280;9523;42.650;23.386;2023-04-01T03:39:49;93646.72;;;11.10;70.19
18790;BME280;9523;42.650;23.386;2023-04-01T03:42:16;93656.81;;;11.08;73.31
18790;BME280;9523;42.650;23.386;2023-04-01T03:44:43;93635.91;;;10.86;72.81
18790;BME280;9523;42.650;23.386;2023-04-01T03:47:10;93635.41;;;11.01;73.46
18790;BME280;9523;42.650;23.386;2023-04-01T03:49:38;93631.53;;;10.90;73.82
18790;BME280;9523;42.650;23.386;2023-04-01T03:52:08;93625.19;;;10.91;74.09
18790;BME280;9523;42.650;23.386;2023-04-01T03:54:36;93625.63;;;11.01;72.86
18790;BME280;9523;42.650;23.386;2023-04-01T03:57:02;93618.78;;;11.09;72.40
18790;BME280;9523;42.650;23.386;2023-04-01T03:59:29;93605.28;;;11.02;74.38
18790;BME280;9523;42.650;23.386;2023-04-01T04:01:56;93575.34;;;10.98;75.41
18790;BME280;9523;42.650;23.386;2023-04-01T04:04:23;93573.03;;;10.88;77.03
18790;BME280;9523;42.650;23.386;2023-04-01T04:06:51;93565.59;;;10.90;77.66
18790;BME280;9523;42.650;23.386;2023-04-01T04:09:18;93562.97;;;10.81;77.31
18790;BME280;9523;42.650;23.386;2023-04-01T04:11:45;93567.94;;;10.82;77.67
18790;BME280;9523;42.650;23.386;2023-04-01T04:14:11;93557.38;;;10.82;76.72
18790;BME280;9523;42.650;23.386;2023-04-01T04:16:38;93536.16;;;10.70;74.28
18790;BME280;9523;42.650;23.386;2023-04-01T04:19:05;93538.28;;;10.86;72.62
18790;BME280;9523;42.650;23.386;2023-04-01T04:21:32;93547.56;;;10.92;72.34
18790;BME280;9523;42.650;23.386;2023-04-01T04:24:00;93524.59;;;10.83;71.81
18790;BME280;9523;42.650;23.386;2023-04-01T04:26:27;93525.72;;;10.82;74.24
18790;BME280;9523;42.650;23.386;2023-04-01T04:28:54;93543.22;;;10.87;71.46
18790;BME280;9523;42.650;23.386;2023-04-01T04:31:23;93528.69;;;10.72;71.73
18790;BME280;9523;42.650;23.386;2023-04-01T04:33:50;93510.84;;;10.69;72.27
18790;BME280;9523;42.650;23.386;2023-04-01T04:36:18;93526.16;;;10.84;73.96
18790;BME280;9523;42.650;23.386;2023-04-01T04:38:45;93511.13;;;10.85;72.65
18790;BME280;9523;42.650;23.386;2023-04-01T04:41:14;93504.13;;;10.89;73.56
18790;BME280;9523;42.650;23.386;2023-04-01T04:43:48;93494.00;;;10.91;72.73
18790;BME280;9523;42.650;23.386;2023-04-01T04:46:16;93487.97;;;10.91;74.26
18790;BME280;9523;42.650;23.386;2023-04-01T04:48:43;93478.66;;;10.84;72.83
18790;BME280;9523;42.650;23.386;2023-04-01T04:51:13;93476.31;;;10.92;73.14
18790;BME280;9523;42.650;23.386;2023-04-01T04:53:41;93477.56;;;10.94;73.35
18790;BME280;9523;42.650;23.386;2023-04-01T04:56:08;93462.66;;;10.98;71.35
18790;BME280;9523;42.650;23.386;2023-04-01T04:58:37;93456.72;;;11.01;68.97
18790;BME280;9523;42.650;23.386;2023-04-01T05:01:09;93465.41;;;11.02;67.42
18790;BME280;9523;42.650;23.386;2023-04-01T05:03:37;93455.66;;;10.94;69.43
18790;BME280;9523;42.650;23.386;2023-04-01T05:06:05;93464.53;;;10.89;69.26
18790;BME280;9523;42.650;23.386;2023-04-01T05:08:32;93465.31;;;10.90;69.92
18790;BME280;9523;42.650;23.386;2023-04-01T05:10:59;93461.41;;;10.96;69.76
18790;BME280;9523;42.650;23.386;2023-04-01T05:13:26;93471.22;;;10.87;72.17
18790;BME280;9523;42.650;23.386;2023-04-01T05:15:55;93465.19;;;10.77;73.17
18790;BME280;9523;42.650;23.386;2023-04-01T05:18:21;93452.03;;;10.69;74.68
18790;BME280;9523;42.650;23.386;2023-04-01T05:20:49;93462.94;;;10.59;73.29
18790;BME280;9523;42.650;23.386;2023-04-01T05:23:19;93468.03;;;10.55;73.91
18790;BME280;9523;42.650;23.386;2023-04-01T05:25:47;93444.03;;;10.48;73.96
18790;BME280;9523;42.650;23.386;2023-04-01T05:28:14;93441.41;;;10.40;76.71
18790;BME280;9523;42.650;23.386;2023-04-01T05:30:41;93438.91;;;10.43;77.56
18790;BME280;9523;42.650;23.386;2023-04-01T05:33:11;93444.53;;;10.42;77.53
18790;BME280;9523;42.650;23.386;2023-04-01T05:35:38;93444.66;;;10.45;76.88
18790;BME280;9523;42.650;23.386;2023-04-01T05:38:06;93449.94;;;10.45;76.73
18790;BME280;9523;42.650;23.386;2023-04-01T05:40:33;93439.53;;;10.49;76.39
18790;BME280;9523;42.650;23.386;2023-04-01T05:42:59;93425.56;;;10.48;75.63
18790;BME280;9523;42.650;23.386;2023-04-01T05:45:27;93428.84;;;10.45;76.42
18790;BME280;9523;42.650;23.386;2023-04-01T05:47:54;93448.06;;;10.54;74.38
18790;BME280;9523;42.650;23.386;2023-04-01T05:50:22;93436.34;;;10.26;75.23
18790;BME280;9523;42.650;23.386;2023-04-01T05:52:49;93459.72;;;10.45;75.33
18790;BME280;9523;42.650;23.386;2023-04-01T05:55:16;93440.03;;;10.42;72.79
18790;BME280;9523;42.650;23.386;2023-04-01T05:57:44;93431.75;;;10.61;72.27
18790;BME280;9523;42.650;23.386;2023-04-01T06:00:12;93427.19;;;10.78;71.85
18790;BME280;9523;42.650;23.386;2023-04-01T06:02:46;93420.91;;;10.92;70.28
18790;BME280;9523;42.650;23.386;2023-04-01T06:05:24;93409.19;;;11.10;68.89
18790;BME280;9523;42.650;23.386;2023-04-01T06:07:55;93411.41;;;11.49;69.38
18790;BME280;9523;42.650;23.386;2023-04-01T06:10:36;93426.78;;;11.76;66.45
18790;BME280;9523;42.650;23.386;2023-04-01T06:13:07;93436.22;;;11.98;65.44
18790;BME280;9523;42.650;23.386;2023-04-01T06:15:42;93415.97;;;12.02;63.54
18790;BME280;9523;42.650;23.386;2023-04-01T06:18:44;93422.81;;;12.36;62.66
18790;BME280;9523;42.650;23.386;2023-04-01T06:21:26;93419.09;;;12.49;61.99
18790;BME280;9523;42.650;23.386;2023-04-01T06:24:05;93389.63;;;12.39;61.36
18790;BME280;9523;42.650;23.386;2023-04-01T06:26:45;93416.78;;;12.60;61.71
18790;BME280;9523;42.650;23.386;2023-04-01T06:29:37;93383.13;;;12.36;61.36
18790;BME280;9523;42.650;23.386;2023-04-01T06:32:17;93420.00;;;12.65;60.56
18790;BME280;9523;42.650;23.386;2023-04-01T06:35:01;93412.97;;;12.69;59.88
18790;BME280;9523;42.650;23.386;2023-04-01T06:37:53;93393.56;;;12.65;60.42
18790;BME280;9523;42.650;23.386;2023-04-01T06:40:42;93409.66;;;12.73;60.81
18790;BME280;9523;42.650;23.386;2023-04-01T06:43:17;93405.66;;;12.66;62.07
18790;BME280;9523;42.650;23.386;2023-04-01T06:45:52;93399.28;;;12.67;62.86
18790;BME280;9523;42.650;23.386;2023-04-01T06:48:47;93397.72;;;12.66;63.75
18790;BME280;9523;42.650;23.386;2023-04-01T06:51:24;93379.53;;;12.65;62.87
18790;BME280;9523;42.650;23.386;2023-04-01T06:54:03;93387.47;;;12.65;63.82
18790;BME280;9523;42.650;23.386;2023-04-01T06:56:32;93397.63;;;12.63;64.48
18790;BME280;9523;42.650;23.386;2023-04-01T06:59:02;93377.69;;;12.78;65.61
18790;BME280;9523;42.650;23.386;2023-04-01T07:01:35;93365.19;;;12.78;65.20
18790;BME280;9523;42.650;23.386;2023-04-01T07:04:06;93363.22;;;12.87;65.87
18790;BME280;9523;42.650;23.386;2023-04-01T07:06:39;93368.31;;;12.92;66.84
18790;BME280;9523;42.650;23.386;2023-04-01T07:09:12;93349.66;;;12.89;67.34
18790;BME280;9523;42.650;23.386;2023-04-01T07:11:41;93364.00;;;12.88;66.78
18790;BME280;9523;42.650;23.386;2023-04-01T07:14:14;93385.50;;;12.98;66.50
18790;BME280;9523;42.650;23.386;2023-04-01T07:16:48;93374.13;;;12.98;66.72
18790;BME280;9523;42.650;23.386;2023-04-01T07:19:21;93359.50;;;13.12;68.37
18790;BME280;9523;42.650;23.386;2023-04-01T07:21:52;93340.38;;;13.19;66.80
18790;BME280;9523;42.650;23.386;2023-04-01T07:24:29;93349.09;;;13.32;67.57
18790;BME280;9523;42.650;23.386;2023-04-01T07:27:01;93363.06;;;13.44;67.36
18790;BME280;9523;42.650;23.386;2023-04-01T07:29:28;93370.13;;;13.52;66.25
18790;BME280;9523;42.650;23.386;2023-04-01T07:32:22;93353.03;;;13.38;65.72
18790;BME280;9523;42.650;23.386;2023-04-01T07:35:05;93365.69;;;13.56;64.24
18790;BME280;9523;42.650;23.386;2023-04-01T07:37:40;93351.41;;;13.73;62.92
18790;BME280;9523;42.650;23.386;2023-04-01T07:40:22;93348.16;;;13.80;62.50
18790;BME280;9523;42.650;23.386;2023-04-01T07:43:10;93362.34;;;13.99;61.78
18790;BME280;9523;42.650;23.386;2023-04-01T07:45:48;93356.44;;;14.06;61.75
18790;BME280;9523;42.650;23.386;2023-04-01T07:48:25;93352.69;;;14.07;61.46
18790;BME280;9523;42.650;23.386;2023-04-01T07:51:02;93347.97;;;14.00;61.89
18790;BME280;9523;42.650;23.386;2023-04-01T07:53:35;93356.53;;;14.09;61.67
18790;BME280;9523;42.650;23.386;2023-04-01T07:56:08;93344.31;;;14.05;61.58
18790;BME280;9523;42.650;23.386;2023-04-01T07:58:45;93331.19;;;13.96;61.23
18790;BME280;9523;42.650;23.386;2023-04-01T08:01:19;93355.72;;;14.21;60.89
18790;BME280;9523;42.650;23.386;2023-04-01T08:06:48;93362.53;;;14.22;60.38
18790;BME280;9523;42.650;23.386;2023-04-01T08:09:25;93346.28;;;14.08;60.67
18790;BME280;9523;42.650;23.386;2023-04-01T08:12:13;93334.22;;;14.26;61.11
18790;BME280;9523;42.650;23.386;2023-04-01T08:14:52;93316.97;;;14.32;61.17
18790;BME280;9523;42.650;23.386;2023-04-01T08:17:29;93327.47;;;14.29;60.91
18790;BME280;9523;42.650;23.386;2023-04-01T08:20:09;93327.97;;;14.34;60.84
18790;BME280;9523;42.650;23.386;2023-04-01T08:22:41;93340.00;;;14.60;59.82
18790;BME280;9523;42.650;23.386;2023-04-01T08:25:14;93309.59;;;14.57;58.38
18790;BME280;9523;42.650;23.386;2023-04-01T08:27:46;93303.94;;;14.74;58.82
18790;BME280;9523;42.650;23.386;2023-04-01T08:30:18;93298.19;;;14.88;58.51
18790;BME280;9523;42.650;23.386;2023-04-01T08:32:49;93303.78;;;14.83;57.96
18790;BME280;9523;42.650;23.386;2023-04-01T08:35:25;93290.38;;;14.95;57.29
18790;BME280;9523;42.650;23.386;2023-04-01T08:37:53;93275.44;;;15.06;57.27
18790;BME280;9523;42.650;23.386;2023-04-01T08:40:50;93269.88;;;15.11;56.45
18790;BME280;9523;42.650;23.386;2023-04-01T08:49:40;93242.81;;;15.05;56.57
18790;BME280;9523;42.650;23.386;2023-04-01T08:52:32;93237.34;;;14.98;54.59
18790;BME280;9523;42.650;23.386;2023-04-01T08:55:26;93245.81;;;15.04;54.37
18790;BME280;9523;42.650;23.386;2023-04-01T08:58:15;93234.19;;;14.93;54.19
18790;BME280;9523;42.650;23.386;2023-04-01T09:00:50;93244.00;;;15.08;53.58
18790;BME280;9523;42.650;23.386;2023-04-01T09:03:38;93248.91;;;15.25;53.53
18790;BME280;9523;42.650;23.386;2023-04-01T09:06:40;93245.34;;;15.37;52.09
18790;BME280;9523;42.650;23.386;2023-04-01T09:12:34;93246.81;;;15.34;52.46
18790;BME280;9523;42.650;23.386;2023-04-01T09:15:29;93231.72;;;15.58;52.42
18790;BME280;9523;42.650;23.386;2023-04-01T09:21:19;93241.81;;;16.13;51.03
18790;BME280;9523;42.650;23.386;2023-04-01T09:27:09;93238.97;;;16.48;47.79
18790;BME280;9523;42.650;23.386;2023-04-01T09:30:03;93240.00;;;16.63;48.30
18790;BME280;9523;42.650;23.386;2023-04-01T09:35:39;93210.28;;;16.87;47.01
18790;BME280;9523;42.650;23.386;2023-04-01T09:38:21;93215.00;;;17.01;46.57
18790;BME280;9523;42.650;23.386;2023-04-01T09:40:55;93213.13;;;17.01;46.62
18790;BME280;9523;42.650;23.386;2023-04-01T09:43:43;93212.81;;;17.06;46.68
18790;BME280;9523;42.650;23.386;2023-04-01T09:46:24;93218.28;;;17.17;46.54
18790;BME280;9523;42.650;23.386;2023-04-01T09:49:13;93201.19;;;17.21;45.97
18790;BME280;9523;42.650;23.386;2023-04-01T09:51:53;93196.75;;;17.32;45.58
18790;BME280;9523;42.650;23.386;2023-04-01T09:54:37;93189.53;;;17.33;45.54
18790;BME280;9523;42.650;23.386;2023-04-01T09:57:36;93184.28;;;17.40;46.98
18790;BME280;9523;42.650;23.386;2023-04-01T10:00:29;93173.09;;;17.61;45.53
18790;BME280;9523;42.650;23.386;2023-04-01T10:06:17;93190.06;;;17.79;44.49
18790;BME280;9523;42.650;23.386;2023-04-01T10:09:23;93174.91;;;17.90;44.32
18790;BME280;9523;42.650;23.386;2023-04-01T10:12:22;93178.50;;;17.68;44.68
18790;BME280;9523;42.650;23.386;2023-04-01T10:15:38;93174.13;;;17.86;44.85
18790;BME280;9523;42.650;23.386;2023-04-01T10:21:59;93156.56;;;17.85;45.80
18790;BME280;9523;42.650;23.386;2023-04-01T10:27:49;93159.31;;;17.96;44.83
18790;BME280;9523;42.650;23.386;2023-04-01T10:30:49;93145.91;;;17.85;45.12
18790;BME280;9523;42.650;23.386;2023-04-01T10:36:38;93156.63;;;17.92;46.25
18790;BME280;9523;42.650;23.386;2023-04-01T10:54:46;93110.56;;;17.55;46.70
18790;BME280;9523;42.650;23.386;2023-04-01T10:57:36;93121.72;;;17.30;47.15
18790;BME280;9523;42.650;23.386;2023-04-01T11:00:23;93102.66;;;17.28;47.62
18790;BME280;9523;42.650;23.386;2023-04-01T11:06:28;93105.56;;;17.16;48.19
18790;BME280;9523;42.650;23.386;2023-04-01T11:12:39;93119.06;;;17.30;46.69
18790;BME280;9523;42.650;23.386;2023-04-01T11:15:31;93107.91;;;17.21;47.12
18790;BME280;9523;42.650;23.386;2023-04-01T11:18:24;93099.94;;;17.21;47.59
18790;BME280;9523;42.650;23.386;2023-04-01T11:21:22;93100.34;;;17.23;48.18
18790;BME280;9523;42.650;23.386;2023-04-01T11:24:25;93092.84;;;16.99;49.05
18790;BME280;9523;42.650;23.386;2023-04-01T11:27:07;93099.63;;;16.93;47.98
18790;BME280;9523;42.650;23.386;2023-04-01T11:29:56;93106.44;;;16.61;46.09
18790;BME280;9523;42.650;23.386;2023-04-01T11:32:39;93111.81;;;16.64;43.82
18790;BME280;9523;42.650;23.386;2023-04-01T11:35:32;93139.94;;;16.62;42.61
18790;BME280;9523;42.650;23.386;2023-04-01T11:38:11;93160.25;;;16.47;41.97
18790;BME280;9523;42.650;23.386;2023-04-01T11:40:45;93148.06;;;16.46;41.96
18790;BME280;9523;42.650;23.386;2023-04-01T11:43:18;93187.41;;;16.33;43.08
18790;BME280;9523;42.650;23.386;2023-04-01T11:45:51;93194.66;;;16.10;45.64
18790;BME280;9523;42.650;23.386;2023-04-01T11:48:42;93256.81;;;14.52;57.81
18790;BME280;9523;42.650;23.386;2023-04-01T11:51:28;93268.94;;;12.83;75.22
18790;BME280;9523;42.650;23.386;2023-04-01T11:54:01;93279.53;;;11.98;97.88
18790;BME280;9523;42.650;23.386;2023-04-01T11:56:43;93307.22;;;11.80;100.00
18790;BME280;9523;42.650;23.386;2023-04-01T11:59:39;93342.63;;;11.25;100.00
18790;BME280;9523;42.650;23.386;2023-04-01T12:02:18;93356.03;;;10.61;100.00
18790;BME280;9523;42.650;23.386;2023-04-01T12:04:59;93389.53;;;10.23;100.00
18790;BME280;9523;42.650;23.386;2023-04-01T12:07:48;93362.88;;;10.16;100.00
18790;BME280;9523;42.650;23.386;2023-04-01T12:10:19;93345.31;;;10.11;100.00
18790;BME280;9523;42.650;23.386;2023-04-01T12:12:54;93329.34;;;10.25;100.00
18790;BME280;9523;42.650;23.386;2023-04-01T12:15:33;93356.47;;;10.34;100.00
18790;BME280;9523;42.650;23.386;2023-04-01T12:18:09;93352.06;;;10.47;100.00
18790;BME280;9523;42.650;23.386;2023-04-01T12:20:46;93358.06;;;10.56;100.00
18790;BME280;9523;42.650;23.386;2023-04-01T12:23:26;93355.56;;;10.59;100.00
18790;BME280;9523;42.650;23.386;2023-04-01T12:26:23;93355.75;;;10.54;100.00
18790;BME280;9523;42.650;23.386;2023-04-01T12:29:07;93341.75;;;10.62;100.00
18790;BME280;9523;42.650;23.386;2023-04-01T12:31:40;93338.66;;;10.90;100.00
18790;BME280;9523;42.650;23.386;2023-04-01T12:34:40;93339.66;;;11.26;100.00
18790;BME280;9523;42.650;23.386;2023-04-01T12:37:14;93312.97;;;11.61;100.00
18790;BME280;9523;42.650;23.386;2023-04-01T12:42:55;93354.34;;;11.77;100.00
18790;BME280;9523;42.650;23.386;2023-04-01T12:45:31;93356.31;;;11.81;100.00
18790;BME280;9523;42.650;23.386;2023-04-01T12:48:21;93361.59;;;11.81;100.00
18790;BME280;9523;42.650;23.386;2023-04-01T12:54:14;93357.59;;;11.74;100.00
18790;BME280;9523;42.650;23.386;2023-04-01T12:56:48;93368.03;;;11.71;100.00
18790;BME280;9523;42.650;23.386;2023-04-01T12:59:38;93354.53;;;11.72;100.00
18790;BME280;9523;42.650;23.386;2023-04-01T13:02:21;93350.16;;;11.76;100.00
18790;BME280;9523;42.650;23.386;2023-04-01T13:05:12;93347.00;;;11.62;100.00
18790;BME280;9523;42.650;23.386;2023-04-01T13:07:55;93325.59;;;11.55;100.00
18790;BME280;9523;42.650;23.386;2023-04-01T13:10:37;93330.91;;;11.67;100.00
18790;BME280;9523;42.650;23.386;2023-04-01T13:13:26;93319.88;;;11.74;100.00
18790;BME280;9523;42.650;23.386;2023-04-01T13:15:58;93308.03;;;11.92;100.00
18790;BME280;9523;42.650;23.386;2023-04-01T13:18:39;93267.50;;;11.88;100.00
18790;BME280;9523;42.650;23.386;2023-04-01T13:21:17;93266.44;;;12.50;100.00
18790;BME280;9523;42.650;23.386;2023-04-01T13:23:54;93234.97;;;14.27;100.00
18790;BME280;9523;42.650;23.386;2023-04-01T13:26:28;93239.16;;;16.13;100.00
18790;BME280;9523;42.650;23.386;2023-04-01T13:28:59;93244.03;;;17.69;93.44
18790;BME280;9523;42.650;23.386;2023-04-01T13:31:36;93235.19;;;18.83;74.16
18790;BME280;9523;42.650;23.386;2023-04-01T13:34:18;93237.56;;;19.74;64.47
18790;BME280;9523;42.650;23.386;2023-04-01T13:36:59;93238.09;;;20.61;56.45
18790;BME280;9523;42.650;23.386;2023-04-01T13:39:35;93219.63;;;20.06;52.89
18790;BME280;9523;42.650;23.386;2023-04-01T13:42:18;93223.16;;;20.39;50.78
18790;BME280;9523;42.650;23.386;2023-04-01T13:44:51;93227.28;;;19.97;51.81
18790;BME280;9523;42.650;23.386;2023-04-01T13:51:01;93198.97;;;20.95;50.08
18790;BME280;9523;42.650;23.386;2023-04-01T13:56:34;93204.22;;;22.25;47.17
18790;BME280;9523;42.650;23.386;2023-04-01T13:59:16;93192.28;;;22.29;47.20
18790;BME280;9523;42.650;23.386;2023-04-01T14:01:53;93184.75;;;22.58;42.64
18790;BME280;9523;42.650;23.386;2023-04-01T14:04:46;93189.59;;;22.77;43.11
18790;BME280;9523;42.650;23.386;2023-04-01T14:07:32;93169.19;;;22.83;46.17
18790;BME280;9523;42.650;23.386;2023-04-01T14:10:13;93176.53;;;22.79;47.42
18790;BME280;9523;42.650;23.386;2023-04-01T14:12:50;93159.28;;;22.29;51.58
18790;BME280;9523;42.650;23.386;2023-04-01T14:15:34;93177.78;;;22.20;51.35
18790;BME280;9523;42.650;23.386;2023-04-01T14:18:23;93170.59;;;21.19;52.96
18790;BME280;9523;42.650;23.386;2023-04-01T14:21:05;93164.50;;;19.63;58.64
18790;BME280;9523;42.650;23.386;2023-04-01T14:23:55;93172.25;;;18.99;62.18
18790;BME280;9523;42.650;23.386;2023-04-01T14:26:41;93160.97;;;18.55;64.61
18790;BME280;9523;42.650;23.386;2023-04-01T14:29:21;93148.09;;;18.23;68.44
18790;BME280;9523;42.650;23.386;2023-04-01T14:32:02;93156.19;;;18.30;70.30
18790;BME280;9523;42.650;23.386;2023-04-01T14:34:40;93142.50;;;17.92;68.73
18790;BME280;9523;42.650;23.386;2023-04-01T14:37:19;93121.94;;;17.52;70.82
18790;BME280;9523;42.650;23.386;2023-04-01T14:43:47;93141.41;;;17.56;76.49
18790;BME280;9523;42.650;23.386;2023-04-01T14:46:32;93162.66;;;17.82;74.27
18790;BME280;9523;42.650;23.386;2023-04-01T14:49:04;93144.13;;;18.51;71.62
18790;BME280;9523;42.650;23.386;2023-04-01T14:51:41;93144.63;;;19.57;62.75
18790;BME280;9523;42.650;23.386;2023-04-01T14:54:13;93139.69;;;20.69;56.91
18790;BME280;9523;42.650;23.386;2023-04-01T14:56:49;93150.69;;;21.09;53.55
18790;BME280;9523;42.650;23.386;2023-04-01T14:59:27;93146.09;;;21.21;52.91